Time;durP1;ratioP1;P1;durP2;ratioP2;P2;SDS_P1;SDS_P2;PMS_P1;PMS_P2;Temp;Humidity;BMP_temperature;BMP_pressure;BME280_temperature;BME280_humidity;BME280_pressure;Samples;Min_cycle;Max_cycle;Signal;HPM_P1;HPM_P2
2022/03/17 00:02:03;;;;;;;;;;;;;;;18.14;44.64;101913.31;5126385;28;19997;-59
2022/03/17 00:04:28;;;;;;;;;;;;;;;18.13;44.54;101910.75;5126101;28;19912;-59
2022/03/17 00:06:53;;;;;;;;;;;;;;;18.13;44.57;101905.38;5126759;28;19939;-59
2022/03/17 00:09:19;;;;;;;;;;;;;;;18.11;44.61;101897.44;5125307;28;19916;-59
2022/03/17 00:11:44;;;;;;;;;;;;;;;18.12;44.51;101899.13;5126019;28;19969;-59
2022/03/17 00:14:09;;;;;;;;;;;;;;;18.12;44.37;101899.13;5126323;28;19907;-59
2022/03/17 00:16:34;;;;;;;;;;;;;;;18.12;44.39;101895.59;5126164;28;19998;-59
2022/03/17 00:19:07;;;;;;;;;;;;;;;18.11;44.48;101897.44;5126106;28;19907;-59
2022/03/17 00:21:32;;;;;;;;;;;;;;;18.11;44.26;101896.59;5125799;28;19923;-59
2022/03/17 00:23:58;;;;;;;;;;;;;;;18.11;44.45;101901.97;5124691;28;19916;-59
2022/03/17 00:26:23;;;;;;;;;;;;;;;18.10;44.45;101894.91;5126072;28;19908;-59
2022/03/17 00:28:48;;;;;;;;;;;;;;;18.09;44.54;101901.25;5125817;28;19954;-59
2022/03/17 00:31:16;;;;;;;;;;;;;;;18.08;44.54;101895.03;5125217;28;19914;-59
2022/03/17 00:33:41;;;;;;;;;;;;;;;18.08;44.46;101889.63;5125840;28;19937;-59
2022/03/17 00:36:06;;;;;;;;;;;;;;;18.07;44.36;101887.94;5125676;28;19907;-59
2022/03/17 00:38:31;;;;;;;;;;;;;;;18.08;44.47;101891.47;5125563;28;19907;-59
2022/03/17 00:40:56;;;;;;;;;;;;;;;18.07;44.44;101887.94;5124411;28;19928;-59
2022/03/17 00:43:22;;;;;;;;;;;;;;;18.07;44.31;101890.63;5125748;28;19923;-59
2022/03/17 00:45:48;;;;;;;;;;;;;;;18.07;44.47;101884.41;5117743;28;19908;-59
2022/03/17 00:48:13;;;;;;;;;;;;;;;18.06;44.16;101886.25;5105301;28;19957;-59
2022/03/17 00:50:38;;;;;;;;;;;;;;;18.06;44.13;101880.88;5107025;28;19983;-59
2022/03/17 00:53:03;;;;;;;;;;;;;;;18.05;44.12;101884.53;5110334;28;19912;-59
2022/03/17 00:55:29;;;;;;;;;;;;;;;18.06;44.13;101880.88;5124151;28;19947;-59
2022/03/17 00:57:54;;;;;;;;;;;;;;;18.05;44.29;101875.59;5125663;28;19908;-59
2022/03/17 01:00:21;;;;;;;;;;;;;;;18.05;44.18;101875.59;5125055;27;19930;-59
2022/03/17 01:02:47;;;;;;;;;;;;;;;18.04;44.14;101873.91;5125284;27;19919;-59
2022/03/17 01:05:13;;;;;;;;;;;;;;;18.04;44.10;101863.16;5125041;28;19915;-59
2022/03/17 01:07:38;;;;;;;;;;;;;;;18.04;44.23;101857.75;5124256;28;19908;-59
2022/03/17 01:10:07;;;;;;;;;;;;;;;18.04;44.15;101852.38;5123986;28;19907;-59
2022/03/17 01:12:32;;;;;;;;;;;;;;;18.03;44.00;101856.91;5125194;28;19951;-59
2022/03/17 01:14:57;;;;;;;;;;;;;;;18.03;44.16;101864.16;5125184;28;19919;-59
2022/03/17 01:17:22;;;;;;;;;;;;;;;18.02;43.89;101874.06;5124335;28;19912;-59
2022/03/17 01:19:47;;;;;;;;;;;;;;;18.02;44.07;101882.13;5124907;27;19914;-59
2022/03/17 01:22:13;;;;;;;;;;;;;;;18.03;43.81;101869.53;5124621;28;19915;-59
2022/03/17 01:24:38;;;;;;;;;;;;;;;18.02;44.05;101868.69;5123869;28;19911;-59
2022/03/17 01:27:03;;;;;;;;;;;;;;;18.01;44.02;101872.38;5124970;28;19915;-59
2022/03/17 01:29:29;;;;;;;;;;;;;;;18.02;43.79;101875.91;5123514;28;19912;-60
2022/03/17 01:31:54;;;;;;;;;;;;;;;18.01;43.83;101872.38;5123485;28;19907;-60
2022/03/17 01:34:19;;;;;;;;;;;;;;;18.02;43.75;101867.84;5124745;28;19908;-59
2022/03/17 01:36:44;;;;;;;;;;;;;;;18.02;43.83;101862.44;5124790;28;19930;-59
2022/03/17 01:39:09;;;;;;;;;;;;;;;18.01;43.91;101869.69;5123661;28;20006;-59
2022/03/17 01:41:35;;;;;;;;;;;;;;;18.01;43.95;101858.91;5124174;28;19908;-59
2022/03/17 01:44:00;;;;;;;;;;;;;;;18.01;43.85;101858.03;5124384;28;19964;-59
2022/03/17 01:46:25;;;;;;;;;;;;;;;17.99;43.80;101860.88;5114581;28;19919;-59
2022/03/17 01:48:50;;;;;;;;;;;;;;;17.99;43.81;101855.50;5124677;28;19919;-59
2022/03/17 01:51:15;;;;;;;;;;;;;;;17.99;43.61;101863.56;5124385;28;19908;-59
2022/03/17 01:53:41;;;;;;;;;;;;;;;17.99;43.81;101858.19;5124575;28;19926;-60
2022/03/17 01:56:06;;;;;;;;;;;;;;;17.98;43.86;101862.72;5123608;28;19908;-59
2022/03/17 01:58:31;;;;;;;;;;;;;;;17.98;43.68;101859.19;5124530;28;19908;-58
2022/03/17 02:00:56;;;;;;;;;;;;;;;17.97;43.67;101858.34;5124200;28;19915;-59
2022/03/17 02:03:21;;;;;;;;;;;;;;;17.97;43.66;101861.03;5124463;28;19928;-59
2022/03/17 02:05:47;;;;;;;;;;;;;;;17.97;43.61;101854.81;5124364;28;19908;-59
2022/03/17 02:08:14;;;;;;;;;;;;;;;17.96;43.71;101862.00;5124361;28;19968;-60
2022/03/17 02:13:23;;;;;;;;;;;;;;;17.97;43.74;101863.72;5124682;28;20500;-59
2022/03/17 02:15:52;;;;;;;;;;;;;;;17.97;43.76;101862.88;5124146;28;20470;-58
2022/03/17 02:18:17;;;;;;;;;;;;;;;17.96;43.52;101861.16;5104283;28;19912;-59
2022/03/17 02:20:43;;;;;;;;;;;;;;;17.95;43.61;101854.91;5103722;28;19939;-58
2022/03/17 02:25:56;;;;;;;;;;;;;;;17.95;43.66;101859.44;5102996;28;19930;-59
2022/03/17 02:28:21;;;;;;;;;;;;;;;17.94;43.67;101860.44;5104149;28;19912;-59
2022/03/17 02:30:46;;;;;;;;;;;;;;;17.94;43.67;101852.38;5103289;28;19918;-59
2022/03/17 02:33:13;;;;;;;;;;;;;;;17.93;43.51;101848.00;5103923;28;19915;-59
2022/03/17 02:35:39;;;;;;;;;;;;;;;17.93;43.62;101845.31;5102688;28;19915;-59
2022/03/17 02:38:05;;;;;;;;;;;;;;;17.93;43.76;101840.78;5103775;28;19915;-59
2022/03/17 02:40:31;;;;;;;;;;;;;;;17.92;43.56;101841.75;5102709;28;19908;-59
2022/03/17 02:42:57;;;;;;;;;;;;;;;17.92;43.68;101844.44;5102463;28;20274;-59
2022/03/17 02:45:22;;;;;;;;;;;;;;;17.92;43.36;101848.97;5107619;28;19918;-59
2022/03/17 02:47:48;;;;;;;;;;;;;;;17.92;43.31;101848.97;5124112;28;19911;-59
2022/03/17 02:50:13;;;;;;;;;;;;;;;17.91;43.46;101848.13;5124132;28;19947;-59
2022/03/17 02:52:38;;;;;;;;;;;;;;;17.90;43.57;101851.81;5123908;28;19929;-59
2022/03/17 02:55:04;;;;;;;;;;;;;;;17.91;43.38;101844.56;5125246;28;19915;-59
2022/03/17 02:57:29;;;;;;;;;;;;;;;17.91;43.36;101852.66;5128090;28;19914;-59
2022/03/17 02:59:54;;;;;;;;;;;;;;;17.90;43.34;101851.81;5126372;28;19915;-60
2022/03/17 03:02:20;;;;;;;;;;;;;;;17.90;43.46;101853.66;5127608;28;19914;-59
2022/03/17 03:04:45;;;;;;;;;;;;;;;17.89;43.43;101860.88;5127099;28;20006;-59
2022/03/17 03:07:10;;;;;;;;;;;;;;;17.89;43.43;101868.94;5127678;27;19908;-59
2022/03/17 03:09:35;;;;;;;;;;;;;;;17.88;43.58;101859.19;5126241;28;19908;-59
2022/03/17 03:12:00;;;;;;;;;;;;;;;17.88;43.54;101858.28;5127247;28;19912;-59
2022/03/17 03:14:26;;;;;;;;;;;;;;;17.87;43.53;101870.91;5117451;28;19938;-59
2022/03/17 03:16:51;;;;;;;;;;;;;;;17.88;43.42;101871.75;5115361;28;19915;-59
2022/03/17 03:19:16;;;;;;;;;;;;;;;17.87;43.37;101878.97;5127277;28;19912;-59
2022/03/17 03:21:44;;;;;;;;;;;;;;;17.86;43.58;101879.97;5126717;28;20002;-59
2022/03/17 03:24:10;;;;;;;;;;;;;;;17.87;43.45;101888.88;5126171;28;20014;-59
2022/03/17 03:26:35;;;;;;;;;;;;;;;17.86;43.47;101892.56;5127073;28;19908;-59
2022/03/17 03:29:00;;;;;;;;;;;;;;;17.86;43.52;101895.25;5127310;28;19908;-59
2022/03/17 03:31:26;;;;;;;;;;;;;;;17.85;43.54;101897.09;5125332;28;19946;-60
2022/03/17 03:33:51;;;;;;;;;;;;;;;17.85;43.26;101899.81;5126990;28;19911;-59
2022/03/17 03:39:07;;;;;;;;;;;;;;;17.85;43.27;101913.25;5101990;28;19938;-59
2022/03/17 03:41:32;;;;;;;;;;;;;;;17.85;43.26;101917.78;5126505;28;19933;-59
2022/03/17 03:43:58;;;;;;;;;;;;;;;17.84;43.42;101921.44;5126780;28;19951;-59
2022/03/17 03:46:23;;;;;;;;;;;;;;;17.84;43.19;101927.69;5118102;28;19911;-59
2022/03/17 03:48:49;;;;;;;;;;;;;;;17.84;43.19;101925.00;5126552;28;19934;-59
2022/03/17 03:51:14;;;;;;;;;;;;;;;17.83;43.09;101928.66;5126669;28;19912;-59
2022/03/17 03:56:25;;;;;;;;;;;;;;;17.84;43.17;101926.81;5126497;28;19950;-60
2022/03/17 03:58:50;;;;;;;;;;;;;;;17.82;43.11;101932.34;5126592;28;19914;-59
2022/03/17 04:01:15;;;;;;;;;;;;;;;17.83;43.15;101935.88;5126420;28;19908;-60
2022/03/17 04:03:42;;;;;;;;;;;;;;;17.83;43.13;101936.72;5126285;28;19915;-59
2022/03/17 04:06:07;;;;;;;;;;;;;;;17.82;43.11;101945.78;5125842;28;19914;-60
2022/03/17 04:08:32;;;;;;;;;;;;;;;17.82;43.24;101943.09;5126292;28;20006;-59
2022/03/17 04:10:57;;;;;;;;;;;;;;;17.82;43.29;101944.94;5124936;28;20482;-59
2022/03/17 04:13:22;;;;;;;;;;;;;;;17.81;43.21;101949.47;5126501;28;19933;-59
2022/03/17 04:15:48;;;;;;;;;;;;;;;17.81;43.24;101959.41;5126086;28;19908;-59
2022/03/17 04:18:13;;;;;;;;;;;;;;;17.81;43.17;101962.09;5126091;28;19911;-59
2022/03/17 04:20:38;;;;;;;;;;;;;;;17.81;43.26;101972.84;5126012;28;19915;-59
2022/03/17 04:23:03;;;;;;;;;;;;;;;17.80;43.13;101974.69;5125782;28;19943;-59
2022/03/17 04:25:28;;;;;;;;;;;;;;;17.79;43.11;101981.03;5124975;28;19908;-59
2022/03/17 04:27:53;;;;;;;;;;;;;;;17.80;43.12;101998.03;5126406;28;20003;-59
2022/03/17 04:30:19;;;;;;;;;;;;;;;17.80;43.26;102008.78;5125867;28;19908;-59
2022/03/17 04:32:44;;;;;;;;;;;;;;;17.79;43.32;102018.69;5125762;28;19971;-60
2022/03/17 04:35:09;;;;;;;;;;;;;;;17.78;43.22;102022.38;5125888;28;20290;-59
2022/03/17 04:37:35;;;;;;;;;;;;;;;17.79;43.07;102036.69;5126009;28;19950;-59
2022/03/17 04:40:01;;;;;;;;;;;;;;;17.80;43.09;102062.59;5124459;28;19915;-59
2022/03/17 04:42:26;;;;;;;;;;;;;;;17.80;43.22;102057.19;5125516;28;19916;-60
2022/03/17 04:44:51;;;;;;;;;;;;;;;17.79;43.26;102071.66;5125513;28;19920;-59
2022/03/17 04:47:17;;;;;;;;;;;;;;;17.79;43.08;102083.25;5119075;28;19951;-59
2022/03/17 04:49:42;;;;;;;;;;;;;;;17.78;43.11;102100.38;5125577;28;19914;-59
2022/03/17 04:53:26;;;;;;;;;;;;;;;17.80;43.03;102108.31;5125184;28;19907;-59
2022/03/17 04:54:52;;;;;;;;;;;;;;;17.80;43.13;102116.38;5124349;28;19928;-59
2022/03/17 04:57:18;;;;;;;;;;;;;;;17.79;43.04;102134.38;5125666;28;19947;-59
2022/03/17 04:59:43;;;;;;;;;;;;;;;17.79;43.19;102133.53;5125446;28;20345;-59
2022/03/17 05:02:08;;;;;;;;;;;;;;;17.79;43.05;102144.28;5122955;28;19947;-59
2022/03/17 05:04:34;;;;;;;;;;;;;;;17.79;43.22;102141.59;5106371;28;19916;-58
2022/03/17 05:06:59;;;;;;;;;;;;;;;17.78;43.14;102146.13;5104933;28;20124;-58
2022/03/17 05:09:24;;;;;;;;;;;;;;;17.78;43.24;102159.56;5109393;28;19916;-60
2022/03/17 05:11:50;;;;;;;;;;;;;;;17.78;43.17;102161.41;5124401;28;19914;-61
2022/03/17 05:14:15;;;;;;;;;;;;;;;17.78;43.10;102166.78;5124626;28;19908;-60
2022/03/17 05:16:40;;;;;;;;;;;;;;;17.77;43.23;102176.69;5115224;28;19915;-58
2022/03/17 05:19:05;;;;;;;;;;;;;;;17.77;43.12;102181.22;5115878;28;19923;-56
2022/03/17 05:21:31;;;;;;;;;;;;;;;17.77;43.16;102184.78;5111817;28;19978;-57
2022/03/17 05:23:56;;;;;;;;;;;;;;;17.77;43.11;102182.09;5114963;28;19920;-57
2022/03/17 05:26:21;;;;;;;;;;;;;;;17.76;43.33;102193.84;5121562;28;19919;-58
2022/03/17 05:28:46;;;;;;;;;;;;;;;17.77;43.43;102200.06;5121660;28;20396;-57
2022/03/17 05:31:11;;;;;;;;;;;;;;;17.76;43.47;102201.91;5121747;28;20296;-58
2022/03/17 05:33:36;;;;;;;;;;;;;;;17.74;43.41;102207.38;5116437;28;19907;-58
2022/03/17 05:36:05;;;;;;;;;;;;;;;17.75;43.39;102210.94;5118108;28;19916;-58
2022/03/17 05:38:30;;;;;;;;;;;;;;;17.74;43.37;102217.31;5113420;28;19923;-58
2022/03/17 05:40:56;;;;;;;;;;;;;;;17.75;43.35;102229.75;5107943;28;19912;-59
2022/03/17 05:43:22;;;;;;;;;;;;;;;17.74;43.44;102231.59;5105608;28;19915;-57
2022/03/17 05:45:47;;;;;;;;;;;;;;;17.74;43.50;102241.50;5116199;28;19946;-58
2022/03/17 05:48:12;;;;;;;;;;;;;;;17.74;43.59;102254.97;5106943;28;19919;-58
2022/03/17 05:50:41;;;;;;;;;;;;;;;17.74;43.54;102265.72;5107534;28;19914;-56
2022/03/17 05:53:07;;;;;;;;;;;;;;;17.73;43.67;102272.06;5116326;28;19957;-58
2022/03/17 05:55:32;;;;;;;;;;;;;;;17.74;43.62;102279.16;5120645;28;19927;-58
2022/03/17 05:57:57;;;;;;;;;;;;;;;17.73;43.71;102285.50;5121876;28;19947;-57
2022/03/17 06:00:23;;;;;;;;;;;;;;;17.72;43.89;102306.19;5121075;28;20378;-58
2022/03/17 06:02:49;;;;;;;;;;;;;;;17.72;43.92;102295.41;5118874;28;19913;-58
2022/03/17 06:05:14;;;;;;;;;;;;;;;17.73;43.80;102309.72;5113832;28;19916;-57
2022/03/17 06:07:40;;;;;;;;;;;;;;;17.74;43.79;102325.75;5112957;28;19908;-57
2022/03/17 06:10:05;;;;;;;;;;;;;;;17.74;43.86;102323.06;5108979;28;19912;-55
2022/03/17 06:12:31;;;;;;;;;;;;;;;17.76;43.84;102327.50;5115923;28;19907;-58
2022/03/17 06:14:57;;;;;;;;;;;;;;;17.76;43.77;102335.56;5112237;28;19907;-58
2022/03/17 06:17:22;;;;;;;;;;;;;;;17.77;43.91;102342.63;5120086;28;19918;-58
2022/03/17 06:19:48;;;;;;;;;;;;;;;17.78;44.04;102355.09;5120561;28;20007;-58
2022/03/17 06:22:13;;;;;;;;;;;;;;;17.77;43.96;102373.09;5117255;28;19961;-58
2022/03/17 06:24:38;;;;;;;;;;;;;;;17.78;43.91;102374.78;5114772;28;19915;-58
2022/03/17 06:27:03;;;;;;;;;;;;;;;17.78;44.08;102387.38;5117724;28;19912;-57
2022/03/17 06:29:28;;;;;;;;;;;;;;;17.78;44.14;102390.94;5120803;27;20352;-58
2022/03/17 06:31:53;;;;;;;;;;;;;;;17.78;44.08;102399.00;5124159;28;19907;-58
2022/03/17 06:34:18;;;;;;;;;;;;;;;17.78;44.17;102403.53;5112544;28;19914;-58
2022/03/17 06:36:44;;;;;;;;;;;;;;;17.79;44.05;102405.22;5120919;28;20023;-59
2022/03/17 06:39:09;;;;;;;;;;;;;;;17.78;44.20;102407.06;5121528;28;19966;-57
2022/03/17 06:41:34;;;;;;;;;;;;;;;17.78;44.23;102412.44;5117565;28;20407;-58
2022/03/17 06:43:59;;;;;;;;;;;;;;;17.78;44.02;102414.28;5120034;28;20003;-58
2022/03/17 06:46:24;;;;;;;;;;;;;;;17.78;44.30;102428.59;5123243;28;19912;-60
2022/03/17 06:48:50;;;;;;;;;;;;;;;17.78;44.25;102425.03;5120064;27;20356;-56
2022/03/17 06:51:15;;;;;;;;;;;;;;;17.79;44.12;102440.19;5120953;28;19964;-57
2022/03/17 06:53:40;;;;;;;;;;;;;;;17.79;44.24;102441.06;5118843;28;19930;-57
2022/03/17 06:56:05;;;;;;;;;;;;;;;17.79;44.14;102445.59;5120733;28;19961;-55
2022/03/17 06:58:31;;;;;;;;;;;;;;;17.79;44.29;102457.19;5113227;28;20005;-53
2022/03/17 07:00:57;;;;;;;;;;;;;;;17.79;44.30;102469.78;5110855;28;19932;-54
2022/03/17 07:03:22;;;;;;;;;;;;;;;17.79;44.10;102470.66;5111330;28;19922;-52
2022/03/17 07:05:47;;;;;;;;;;;;;;;17.79;44.14;102475.19;5121993;28;19947;-54
2022/03/17 07:08:12;;;;;;;;;;;;;;;17.81;44.23;102478.63;5118083;28;19915;-52
2022/03/17 07:10:37;;;;;;;;;;;;;;;17.80;44.22;102493.91;5113391;28;19923;-58
2022/03/17 07:13:02;;;;;;;;;;;;;;;17.80;44.23;102499.28;5118904;28;19912;-53
2022/03/17 07:15:28;;;;;;;;;;;;;;;17.80;44.13;102503.78;5114679;28;19915;-56
2022/03/17 07:17:54;;;;;;;;;;;;;;;17.79;44.10;102511.00;5114456;28;20496;-49
2022/03/17 07:20:19;;;;;;;;;;;;;;;17.80;44.35;102507.34;5115321;28;19908;-53
2022/03/17 07:22:47;;;;;;;;;;;;;;;17.80;44.29;102512.75;5116135;28;20419;-54
2022/03/17 07:25:12;;;;;;;;;;;;;;;17.80;44.35;102511.84;5111833;28;19916;-54
2022/03/17 07:27:40;;;;;;;;;;;;;;;17.79;44.14;102521.75;5113862;28;20051;-51
2022/03/17 07:30:08;;;;;;;;;;;;;;;17.79;44.09;102537.91;5117752;28;19949;-50
2022/03/17 07:32:33;;;;;;;;;;;;;;;17.80;44.27;102546.84;5113854;28;19912;-53
2022/03/17 07:34:58;;;;;;;;;;;;;;;17.80;44.14;102560.28;5114265;28;19916;-54
2022/03/17 07:37:23;;;;;;;;;;;;;;;17.79;44.23;102556.75;5113738;28;20357;-57
2022/03/17 07:39:48;;;;;;;;;;;;;;;17.79;44.16;102564.81;5114274;28;19918;-51
2022/03/17 07:42:14;;;;;;;;;;;;;;;17.79;43.92;102578.25;5114216;28;19919;-49
2022/03/17 07:44:40;;;;;;;;;;;;;;;17.79;44.01;102577.41;5115026;28;19934;-52
2022/03/17 07:47:08;;;;;;;;;;;;;;;17.79;44.08;102577.41;5117937;28;19926;-54
2022/03/17 07:49:33;;;;;;;;;;;;;;;17.80;43.95;102587.19;5114032;28;19912;-51
2022/03/17 07:51:58;;;;;;;;;;;;;;;17.79;43.97;102597.09;5113097;28;19914;-52
2022/03/17 07:54:23;;;;;;;;;;;;;;;17.78;43.96;102598.09;5114074;28;19919;-55
2022/03/17 07:56:48;;;;;;;;;;;;;;;17.79;44.09;102607.00;5116542;28;19911;-53
2022/03/17 07:59:14;;;;;;;;;;;;;;;17.79;44.02;102607.84;5118246;28;19940;-56
2022/03/17 08:01:39;;;;;;;;;;;;;;;17.78;44.15;102611.53;5112071;27;19953;-55
2022/03/17 08:04:05;;;;;;;;;;;;;;;17.78;44.08;102627.69;5115133;28;19941;-49
2022/03/17 08:06:30;;;;;;;;;;;;;;;17.78;44.09;102624.97;5115863;27;19922;-56
2022/03/17 08:08:56;;;;;;;;;;;;;;;17.78;44.07;102638.44;5112022;28;19947;-55
2022/03/17 08:11:23;;;;;;;;;;;;;;;17.78;43.89;102649.19;5117224;28;20705;-55
2022/03/17 08:13:48;;;;;;;;;;;;;;;17.79;43.98;102644.66;5114649;28;19907;-56
2022/03/17 08:16:14;;;;;;;;;;;;;;;17.79;43.84;102658.13;5118192;27;19922;-56
2022/03/17 08:18:39;;;;;;;;;;;;;;;17.79;43.82;102652.75;5114991;28;20022;-55
2022/03/17 08:21:04;;;;;;;;;;;;;;;17.78;43.91;102654.56;5113051;28;19907;-54
2022/03/17 08:23:29;;;;;;;;;;;;;;;17.78;43.95;102659.97;5115684;28;19946;-54
2022/03/17 08:25:55;;;;;;;;;;;;;;;17.79;43.91;102668.88;5115255;28;19964;-52
2022/03/17 08:28:20;;;;;;;;;;;;;;;17.76;43.85;102678.06;5114919;28;19908;-54
2022/03/17 08:30:46;;;;;;;;;;;;;;;17.74;43.90;102674.63;5113333;28;19908;-56
2022/03/17 08:33:11;;;;;;;;;;;;;;;17.73;43.81;102680.97;5115518;28;19990;-59
2022/03/17 08:35:37;;;;;;;;;;;;;;;17.72;43.95;102687.31;5111862;28;19912;-58
2022/03/17 08:38:02;;;;;;;;;;;;;;;17.72;43.89;102701.63;5114400;28;19911;-55
2022/03/17 08:40:27;;;;;;;;;;;;;;;17.74;43.91;102712.28;5109809;28;19915;-58
2022/03/17 08:42:52;;;;;;;;;;;;;;;17.74;44.00;102713.16;5118133;27;19923;-59
2022/03/17 08:51:00;;;;;;;;;;;;;;;17.77;43.86;102730.03;5054437;28;19931;-58
2022/03/17 08:53:25;;;;;;;;;;;;;;;17.77;44.06;102736.28;5053521;28;19912;-59
2022/03/17 08:55:51;;;;;;;;;;;;;;;17.77;44.05;102733.59;5053159;28;19908;-58
2022/03/17 08:58:17;;;;;;;;;;;;;;;17.78;43.97;102754.13;5050791;28;20270;-57
2022/03/17 09:00:42;;;;;;;;;;;;;;;17.77;44.24;102747.03;5050905;28;20296;-50
2022/03/17 09:03:07;;;;;;;;;;;;;;;17.69;44.20;102733.28;5022249;28;19912;-57
2022/03/17 09:05:33;;;;;;;;;;;;;;;17.78;44.25;102751.44;5050907;28;19912;-57
2022/03/17 09:07:58;;;;;;;;;;;;;;;17.78;44.12;102761.34;5054753;28;19917;-57
2022/03/17 09:10:24;;;;;;;;;;;;;;;17.78;44.29;102761.34;5042052;28;19915;-58
2022/03/17 09:12:55;;;;;;;;;;;;;;;17.79;44.08;102766.59;5061785;28;19940;-59
2022/03/17 09:15:20;;;;;;;;;;;;;;;17.79;44.21;102769.28;5061465;28;19908;-57
2022/03/17 09:17:45;;;;;;;;;;;;;;;17.80;44.05;102773.72;5061372;28;19923;-58
2022/03/17 09:20:12;;;;;;;;;;;;;;;17.80;43.95;102779.09;5061480;28;19915;-58
2022/03/17 09:22:38;;;;;;;;;;;;;;;17.80;43.96;102789.88;5061299;28;20365;-55
2022/03/17 09:25:06;;;;;;;;;;;;;;;17.81;43.95;102782.66;5060876;28;19916;-56
2022/03/17 09:27:31;;;;;;;;;;;;;;;17.80;44.04;102800.63;5118113;28;20013;-56
2022/03/17 09:29:56;;;;;;;;;;;;;;;17.81;43.91;102809.56;5123840;28;19994;-56
2022/03/17 09:32:24;;;;;;;;;;;;;;;17.81;44.00;102821.16;5124752;28;19915;-56
2022/03/17 09:34:49;;;;;;;;;;;;;;;17.82;43.94;102822.03;5110403;28;20284;-59
2022/03/17 09:37:17;;;;;;;;;;;;;;;17.83;44.02;102829.13;5103795;28;19947;-57
2022/03/17 09:39:49;;;;;;;;;;;;;;;17.83;43.95;102838.03;5103121;28;19912;-53
2022/03/17 09:42:16;;;;;;;;;;;;;;;17.84;43.95;102834.41;5104256;28;19908;-52
2022/03/17 09:44:42;;;;;;;;;;;;;;;17.85;43.98;102844.19;5104241;28;19912;-54
2022/03/17 09:47:09;;;;;;;;;;;;;;;17.86;43.94;102845.91;5122769;28;20387;-50
2022/03/17 09:49:36;;;;;;;;;;;;;;;17.86;44.07;102843.22;5123334;28;19914;-53
2022/03/17 09:52:05;;;;;;;;;;;;;;;17.86;43.88;102851.28;5124338;28;19912;-54
2022/03/17 09:54:33;;;;;;;;;;;;;;;17.87;43.71;102849.44;5123534;28;19907;-53
2022/03/17 09:56:58;;;;;;;;;;;;;;;17.86;43.81;102848.59;5104047;28;19908;-50
2022/03/17 09:59:23;;;;;;;;;;;;;;;17.87;43.66;102857.50;5102673;28;19915;-53
2022/03/17 10:01:49;;;;;;;;;;;;;;;17.88;43.63;102859.22;5103960;28;19979;-51
2022/03/17 10:04:15;;;;;;;;;;;;;;;17.88;43.52;102870.88;5106174;28;19928;-51
2022/03/17 10:06:41;;;;;;;;;;;;;;;17.89;43.49;102871.72;5108330;28;19922;-54
2022/03/17 10:09:06;;;;;;;;;;;;;;;17.88;43.52;102872.69;5107359;28;19931;-54
2022/03/17 10:11:31;;;;;;;;;;;;;;;17.89;43.32;102867.19;5106375;28;19912;-53
2022/03/17 10:13:57;;;;;;;;;;;;;;;17.89;43.46;102875.28;5108142;28;19908;-52
2022/03/17 10:16:23;;;;;;;;;;;;;;;17.90;43.25;102873.44;5109694;28;20258;-51
2022/03/17 10:19:12;;;;;;;;;;;;;;;17.90;43.21;102873.44;5128460;28;19914;-53
2022/03/17 10:21:38;;;;;;;;;;;;;;;17.90;43.36;102874.28;5128428;28;19916;-54
2022/03/17 10:24:03;;;;;;;;;;;;;;;17.90;43.17;102885.06;5127615;28;19935;-49
2022/03/17 10:26:31;;;;;;;;;;;;;;;17.90;43.29;102893.13;5128121;28;19946;-51
2022/03/17 10:29:04;;;;;;;;;;;;;;;17.91;43.25;102894.00;5128160;28;19912;-53
2022/03/17 10:31:29;;;;;;;;;;;;;;;17.90;43.25;102901.22;5128223;28;19915;-51
2022/03/17 10:33:54;;;;;;;;;;;;;;;17.90;43.31;102903.91;5127910;28;19907;-54
2022/03/17 10:36:22;;;;;;;;;;;;;;;17.90;43.21;102906.59;5128034;28;19976;-51
2022/03/17 10:38:49;;;;;;;;;;;;;;;17.90;43.04;102906.59;5127768;28;19911;-49
2022/03/17 10:41:14;;;;;;;;;;;;;;;17.90;42.86;102917.34;5127225;28;19907;-53
2022/03/17 10:43:42;;;;;;;;;;;;;;;17.90;43.17;102925.44;5128156;28;19954;-53
2022/03/17 10:46:18;;;;;;;;;;;;;;;17.91;43.19;102937.03;5118872;28;19943;-53
2022/03/17 10:48:52;;;;;;;;;;;;;;;17.91;42.90;102940.59;5128002;28;19929;-53
2022/03/17 10:51:30;;;;;;;;;;;;;;;17.92;42.96;102950.38;5127914;28;19904;-54
2022/03/17 10:54:03;;;;;;;;;;;;;;;17.92;43.11;102955.75;5127414;28;19967;-50
2022/03/17 10:56:28;;;;;;;;;;;;;;;17.94;43.04;102964.59;5127542;28;19966;-50
2022/03/17 10:58:53;;;;;;;;;;;;;;;17.95;43.01;102978.91;5127792;28;19915;-54
2022/03/17 11:01:22;;;;;;;;;;;;;;;17.96;42.75;102968.03;5125952;28;19908;-53
2022/03/17 11:03:48;;;;;;;;;;;;;;;17.97;42.83;102972.47;5126222;28;19926;-52
2022/03/17 11:06:15;;;;;;;;;;;;;;;17.98;42.74;102971.47;5125968;28;20010;-51
2022/03/17 11:08:41;;;;;;;;;;;;;;;18.01;42.91;102982.97;5127477;28;19916;-51
2022/03/17 11:11:08;;;;;;;;;;;;;;;18.01;42.86;102986.56;5126475;28;19907;-53
2022/03/17 11:13:33;;;;;;;;;;;;;;;18.03;42.58;102978.34;5127524;28;19908;-49
2022/03/17 11:15:59;;;;;;;;;;;;;;;18.04;42.58;102982.75;5126791;28;19999;-55
2022/03/17 11:18:24;;;;;;;;;;;;;;;18.06;42.52;102994.28;5121147;28;19912;-53
2022/03/17 11:20:49;;;;;;;;;;;;;;;18.08;42.64;102993.19;5104517;28;19927;-53
2022/03/17 11:23:19;;;;;;;;;;;;;;;18.10;42.80;102991.25;5118234;28;19920;-51
2022/03/17 11:25:54;;;;;;;;;;;;;;;18.12;42.61;103004.59;5110513;28;19912;-54
2022/03/17 11:28:32;;;;;;;;;;;;;;;18.14;42.52;102999.97;5121605;28;19984;-57
2022/03/17 11:30:58;;;;;;;;;;;;;;;18.16;42.68;103006.09;5118849;28;19919;-51
2022/03/17 11:33:27;;;;;;;;;;;;;;;18.18;42.71;103009.53;5118851;28;19908;-53
2022/03/17 11:35:53;;;;;;;;;;;;;;;18.20;42.71;103012.97;5122330;28;20383;-53
2022/03/17 11:38:18;;;;;;;;;;;;;;;18.21;42.56;103010.16;5115841;28;19930;-52
2022/03/17 11:41:02;;;;;;;;;;;;;;;18.24;42.83;103012.63;5110328;28;19933;-54
2022/03/17 11:43:37;;;;;;;;;;;;;;;18.27;42.79;103011.56;5116959;28;20372;-55
2022/03/17 11:46:09;;;;;;;;;;;;;;;18.30;42.66;103010.44;5119523;28;19920;-56
2022/03/17 11:48:37;;;;;;;;;;;;;;;18.32;42.82;103013.91;5112861;27;19979;-55
2022/03/17 11:51:03;;;;;;;;;;;;;;;18.34;42.95;103020.03;5112829;28;19920;-56
2022/03/17 11:53:58;;;;;;;;;;;;;;;18.36;42.92;103020.78;5117186;28;19914;-54
2022/03/17 11:56:35;;;;;;;;;;;;;;;18.39;42.96;103024.13;5108213;28;19929;-55
2022/03/17 11:59:00;;;;;;;;;;;;;;;18.41;43.10;103030.25;5109849;28;19943;-53
2022/03/17 12:01:27;;;;;;;;;;;;;;;18.42;42.92;103034.66;5113827;28;19911;-52
2022/03/17 12:04:03;;;;;;;;;;;;;;;18.46;42.94;103036.13;5118695;28;19926;-54
2022/03/17 12:06:28;;;;;;;;;;;;;;;18.48;43.05;103042.28;5115907;28;19908;-50
2022/03/17 12:09:04;;;;;;;;;;;;;;;18.51;42.85;103043.03;5111523;28;19912;-49
2022/03/17 12:11:32;;;;;;;;;;;;;;;18.53;43.02;103052.72;5119283;28;19908;-53
2022/03/17 12:14:22;;;;;;;;;;;;;;;18.55;43.04;103049.91;5107743;28;19989;-51
2022/03/17 12:16:56;;;;;;;;;;;;;;;18.56;42.83;103052.47;5115799;28;20010;-49
2022/03/17 12:19:26;;;;;;;;;;;;;;;18.57;42.75;103059.59;5110956;28;20010;-54
2022/03/17 12:21:57;;;;;;;;;;;;;;;18.60;42.86;103058.50;5112430;28;19924;-50
2022/03/17 12:24:32;;;;;;;;;;;;;;;18.60;43.11;103047.72;5111650;28;19938;-54
2022/03/17 12:27:04;;;;;;;;;;;;;;;18.61;42.97;103063.78;5115812;28;19940;-49
2022/03/17 12:29:29;;;;;;;;;;;;;;;18.63;42.91;103060.97;5115293;28;19919;-49
2022/03/17 12:31:56;;;;;;;;;;;;;;;18.63;43.16;103067.22;5115789;28;20481;-51
2022/03/17 12:34:21;;;;;;;;;;;;;;;18.65;42.89;103073.38;5113776;28;19912;-50
2022/03/17 12:36:46;;;;;;;;;;;;;;;18.67;43.11;103075.94;5097731;28;20407;-51
2022/03/17 12:39:11;;;;;;;;;;;;;;;18.67;43.04;103063.31;5112762;28;19943;-49
2022/03/17 12:41:40;;;;;;;;;;;;;;;18.69;42.97;103077.59;5114660;28;19916;-50
2022/03/17 12:44:05;;;;;;;;;;;;;;;18.72;42.96;103076.47;5118675;28;19936;-49
2022/03/17 12:46:30;;;;;;;;;;;;;;;18.74;43.14;103088.00;5117998;28;20521;-48
2022/03/17 12:49:05;;;;;;;;;;;;;;;18.75;43.01;103087.03;5121959;28;19915;-48